Terminal Aerodrome Forecast
Issued by NWS Portland, OR

Home | Current Version | Previous Version | Text Only | Print | Product List | Glossary On
Versions: 1 2 3 4 5 6 7 8 9 10 11 12 13 14 15 16 17 18 19 20 21 22 23 24 25 26 27 28 29 30 31 32 33 34 35 36
000
FTUS46 KPQR 211720
TAFEUG
TAF
KEUG 211720Z 2118/2218 36006KT P6SM OVC015
     FM211900 36007KT P6SM OVC025
     FM212100 01008KT P6SM FEW030
     FM212300 01009KT P6SM SKC
     FM220300 01005KT P6SM SKC
     FM220600 VRB03KT P6SM SKC=

USA.gov is the U.S. government's official web portal to all federal, state and local government web resources and services.